createdAt,value
2022-12-09T00:02:25.802Z,5.13
2022-12-09T00:04:54.641Z,5.43
2022-12-09T00:07:23.950Z,4.03
2022-12-09T00:09:53.056Z,4.86
2022-12-09T00:12:21.433Z,5.01
2022-12-09T00:14:49.838Z,5.35
2022-12-09T00:17:18.377Z,5.00
2022-12-09T00:19:47.169Z,5.51
2022-12-09T00:22:15.689Z,4.67
2022-12-09T00:24:44.647Z,5.49
2022-12-09T00:27:12.932Z,5.57
2022-12-09T00:29:41.480Z,5.74
2022-12-09T00:32:09.918Z,5.79
2022-12-09T00:34:39.175Z,5.63
2022-12-09T00:37:10.354Z,5.79
2022-12-09T00:39:39.098Z,5.82
2022-12-09T00:42:07.492Z,5.61
2022-12-09T00:44:36.349Z,4.55
2022-12-09T00:47:05.956Z,4.77
2022-12-09T00:49:34.679Z,5.03
2022-12-09T00:52:03.614Z,5.57
2022-12-09T00:54:32.801Z,5.69
2022-12-09T00:57:01.797Z,5.33
2022-12-09T00:59:30.287Z,5.75
2022-12-09T01:01:58.939Z,5.73
2022-12-09T01:04:27.549Z,5.22
2022-12-09T01:06:56.100Z,5.75
2022-12-09T01:09:24.585Z,5.89
2022-12-09T01:11:53.199Z,4.97
2022-12-09T01:14:21.942Z,5.69
2022-12-09T01:16:50.529Z,5.73
2022-12-09T01:19:19.282Z,5.63
2022-12-09T01:21:47.801Z,5.71
2022-12-09T01:24:17.179Z,5.06
2022-12-09T01:26:46.297Z,4.80
2022-12-09T01:29:15.033Z,4.83
2022-12-09T01:31:44.442Z,5.15
2022-12-09T01:34:12.977Z,3.97
2022-12-09T01:36:43.419Z,3.96
2022-12-09T01:39:13.234Z,3.62
2022-12-09T01:41:41.728Z,4.24
2022-12-09T01:44:30.253Z,4.18
2022-12-09T01:47:03.307Z,4.20
2022-12-09T01:49:39.740Z,4.76
2022-12-09T01:52:22.586Z,5.08
2022-12-09T01:54:52.813Z,4.40
2022-12-09T01:57:21.673Z,4.19
2022-12-09T01:59:50.507Z,3.89
2022-12-09T02:02:19.762Z,4.61
2022-12-09T02:04:49.046Z,3.51
2022-12-09T02:07:19.300Z,4.13
2022-12-09T02:10:03.263Z,4.35
2022-12-09T02:12:54.787Z,5.00
2022-12-09T02:15:57.073Z,5.25
2022-12-09T02:18:33.240Z,5.24
2022-12-09T02:21:05.125Z,5.12
2022-12-09T02:23:56.589Z,5.69
2022-12-09T02:26:34.463Z,5.75
2022-12-09T02:29:18.436Z,6.36
2022-12-09T02:32:10.422Z,6.65
2022-12-09T02:34:43.108Z,6.59
2022-12-09T02:37:18.316Z,6.24
2022-12-09T02:40:15.939Z,6.62
2022-12-09T02:42:45.030Z,6.77
2022-12-09T02:45:14.187Z,6.25
2022-12-09T02:47:48.921Z,6.39
2022-12-09T02:50:19.660Z,6.40
2022-12-09T02:52:49.576Z,6.50
2022-12-09T02:55:19.347Z,6.35
2022-12-09T02:57:52.882Z,6.40
2022-12-09T03:00:22.313Z,5.70
2022-12-09T03:02:53.371Z,5.70
2022-12-09T03:05:28.536Z,6.04
2022-12-09T03:08:06.264Z,6.41
2022-12-09T03:10:47.590Z,6.10
2022-12-09T03:13:26.720Z,6.01
2022-12-09T03:15:59.621Z,5.67
2022-12-09T03:18:28.591Z,6.02
2022-12-09T03:20:57.307Z,5.94
2022-12-09T03:23:25.831Z,5.88
2022-12-09T03:25:54.371Z,6.25
2022-12-09T03:28:28.693Z,6.68
2022-12-09T03:30:57.539Z,6.47
2022-12-09T03:33:25.898Z,6.60
2022-12-09T03:35:56.361Z,6.45
2022-12-09T03:38:24.867Z,6.42
2022-12-09T03:41:01.571Z,5.60
2022-12-09T03:43:32.008Z,5.25
2022-12-09T03:46:01.551Z,4.91
2022-12-09T03:48:30.082Z,6.10
2022-12-09T03:51:35.756Z,5.18
2022-12-09T03:54:07.663Z,6.20
2022-12-09T03:56:39.988Z,6.04
2022-12-09T03:59:11.295Z,6.65
2022-12-09T04:01:41.071Z,6.16
2022-12-09T04:04:10.321Z,5.66
2022-12-09T04:06:39.053Z,6.01
2022-12-09T04:09:07.565Z,6.08
2022-12-09T04:11:36.218Z,5.85
2022-12-09T04:14:04.875Z,6.02
2022-12-09T04:16:33.365Z,5.73
2022-12-09T04:19:02.519Z,4.96
2022-12-09T04:21:31.166Z,5.90
2022-12-09T04:23:59.645Z,6.48
2022-12-09T04:26:28.647Z,6.39
2022-12-09T04:28:58.724Z,6.81
2022-12-09T04:31:27.477Z,6.37
2022-12-09T04:33:56.153Z,6.32
2022-12-09T04:36:24.562Z,6.24
2022-12-09T04:38:54.383Z,5.74
2022-12-09T04:41:22.865Z,6.09
2022-12-09T04:43:51.270Z,5.78
2022-12-09T04:46:19.861Z,5.79
2022-12-09T04:48:48.717Z,6.23
2022-12-09T04:51:17.197Z,5.68
2022-12-09T04:53:45.765Z,6.38
2022-12-09T04:56:22.248Z,6.86
2022-12-09T04:58:51.105Z,5.67
2022-12-09T05:01:24.940Z,6.47
2022-12-09T05:03:59.615Z,6.47
2022-12-09T05:06:28.488Z,6.21
2022-12-09T05:08:58.636Z,6.66
2022-12-09T05:11:28.214Z,6.71
2022-12-09T05:13:56.780Z,6.42
2022-12-09T05:16:26.685Z,6.20
2022-12-09T05:18:56.222Z,6.11
2022-12-09T05:21:25.801Z,5.77
2022-12-09T05:23:54.299Z,5.84
2022-12-09T05:26:23.562Z,5.49
2022-12-09T05:28:52.447Z,6.14
2022-12-09T05:31:22.794Z,6.63
2022-12-09T05:33:52.348Z,6.74
2022-12-09T05:36:25.418Z,6.21
2022-12-09T05:38:54.858Z,6.31
2022-12-09T05:41:25.248Z,6.22
2022-12-09T05:43:54.281Z,5.73
2022-12-09T05:46:23.497Z,6.42
2022-12-09T05:48:53.600Z,6.43
2022-12-09T05:51:25.435Z,6.28
2022-12-09T05:53:54.826Z,6.14
2022-12-09T05:56:25.508Z,5.76
2022-12-09T05:58:55.777Z,6.41
2022-12-09T06:01:25.758Z,5.91
2022-12-09T06:03:57.752Z,6.35
2022-12-09T06:06:28.883Z,6.20
2022-12-09T06:08:59.683Z,6.54
2022-12-09T06:11:30.027Z,5.70
2022-12-09T06:13:59.068Z,5.81
2022-12-09T06:16:29.913Z,6.26
2022-12-09T06:18:58.641Z,6.27
2022-12-09T06:21:27.458Z,6.48
2022-12-09T06:23:57.378Z,6.57
2022-12-09T06:26:29.916Z,6.82
2022-12-09T06:28:59.958Z,6.85
2022-12-09T06:31:30.066Z,6.91
2022-12-09T06:33:59.913Z,6.82
2022-12-09T06:36:30.178Z,6.50
2022-12-09T06:39:09.233Z,6.73
2022-12-09T06:41:41.417Z,7.18
2022-12-09T06:44:18.396Z,6.99
2022-12-09T06:46:51.514Z,7.55
2022-12-09T06:49:20.722Z,7.57
2022-12-09T06:51:49.845Z,7.51
2022-12-09T06:54:19.283Z,7.67
2022-12-09T06:56:48.433Z,7.07
2022-12-09T06:59:18.233Z,7.53
2022-12-09T07:01:47.758Z,6.49
2022-12-09T07:04:17.738Z,7.03
2022-12-09T07:06:47.934Z,7.15
2022-12-09T07:09:18.959Z,7.46
2022-12-09T07:11:48.151Z,7.47
2022-12-09T07:14:19.500Z,7.99
2022-12-09T07:16:48.580Z,8.29
2022-12-09T07:19:22.193Z,8.27
2022-12-09T07:21:51.732Z,8.41
2022-12-09T07:24:21.368Z,8.46
2022-12-09T07:26:51.458Z,8.16
2022-12-09T07:29:20.725Z,8.44
2022-12-09T07:31:49.799Z,8.93
2022-12-09T07:34:18.598Z,8.76
2022-12-09T07:36:47.579Z,8.92
2022-12-09T07:39:18.546Z,8.02
2022-12-09T07:41:57.715Z,8.65
2022-12-09T07:44:31.782Z,8.91
2022-12-09T07:47:01.168Z,9.25
2022-12-09T07:49:30.937Z,9.26
2022-12-09T07:52:00.114Z,8.68
2022-12-09T07:54:29.558Z,8.75
2022-12-09T07:56:59.107Z,8.89
2022-12-09T07:59:28.471Z,8.94
2022-12-09T08:02:02.454Z,8.56
2022-12-09T08:04:36.866Z,8.95
2022-12-09T08:07:06.737Z,8.17
2022-12-09T08:09:36.183Z,8.94
2022-12-09T08:12:05.676Z,8.70
2022-12-09T08:14:35.388Z,9.02
2022-12-09T08:17:05.131Z,9.00
2022-12-09T08:19:34.059Z,9.29
2022-12-09T08:22:03.744Z,9.32
2022-12-09T08:24:33.388Z,9.05
2022-12-09T08:27:02.720Z,9.39
2022-12-09T08:29:31.517Z,9.76
2022-12-09T08:32:01.530Z,10.01
2022-12-09T08:34:31.592Z,9.70
2022-12-09T08:37:02.399Z,9.69
2022-12-09T08:39:31.888Z,9.98
2022-12-09T08:42:01.559Z,9.17
2022-12-09T08:44:31.207Z,9.04
2022-12-09T08:47:00.994Z,9.70
2022-12-09T08:49:30.675Z,10.07
2022-12-09T08:51:59.721Z,9.82
2022-12-09T08:54:28.846Z,9.59
2022-12-09T08:56:59.073Z,9.35
2022-12-09T08:59:28.437Z,9.78
2022-12-09T09:01:57.935Z,9.88
2022-12-09T09:04:27.975Z,10.65
2022-12-09T09:06:57.973Z,10.70
2022-12-09T09:09:26.890Z,10.61
2022-12-09T09:11:56.035Z,10.71
2022-12-09T09:14:25.125Z,11.00
2022-12-09T09:16:54.575Z,11.13
2022-12-09T09:19:27.712Z,11.08
2022-12-09T09:21:57.008Z,11.28
2022-12-09T09:24:26.833Z,11.31
2022-12-09T09:26:56.987Z,11.29
2022-12-09T09:29:26.451Z,11.38
2022-12-09T09:31:56.327Z,11.61
2022-12-09T09:34:27.241Z,12.03
2022-12-09T09:36:56.971Z,11.71
2022-12-09T09:39:26.612Z,12.21
2022-12-09T09:42:06.244Z,12.48
2022-12-09T09:44:46.274Z,12.17
2022-12-09T09:47:44.105Z,12.06
2022-12-09T09:50:38.686Z,12.49
2022-12-09T09:53:27.690Z,13.05
2022-12-09T09:56:03.573Z,12.37
2022-12-09T09:58:44.282Z,13.07
2022-12-09T10:01:15.019Z,13.39
2022-12-09T10:03:52.109Z,13.57
2022-12-09T10:06:35.300Z,13.78
2022-12-09T10:09:12.347Z,14.04
2022-12-09T10:11:52.553Z,13.86
2022-12-09T10:14:53.215Z,13.62
2022-12-09T10:17:30.226Z,13.57
2022-12-09T10:20:06.490Z,13.81
2022-12-09T10:23:06.847Z,14.47
2022-12-09T10:25:39.435Z,13.76
2022-12-09T10:28:23.822Z,12.68
2022-12-09T10:30:53.899Z,12.33
2022-12-09T10:33:39.238Z,12.67
2022-12-09T10:36:33.772Z,13.04
2022-12-09T10:39:06.093Z,12.39
2022-12-09T10:42:12.878Z,12.96
2022-12-09T10:44:41.865Z,12.04
2022-12-09T10:47:29.126Z,12.15
2022-12-09T10:50:00.378Z,13.11
2022-12-09T10:52:31.793Z,12.18
2022-12-09T10:55:01.179Z,12.44
2022-12-09T10:57:30.690Z,12.51
2022-12-09T11:00:27.092Z,13.17
2022-12-09T11:02:57.026Z,12.70
2022-12-09T11:05:29.009Z,12.92
2022-12-09T11:07:59.646Z,12.72
2022-12-09T11:10:30.931Z,13.44
2022-12-09T11:13:10.451Z,13.73
2022-12-09T11:15:44.886Z,13.70
2022-12-09T11:18:30.116Z,12.91
2022-12-09T11:21:01.958Z,13.72
2022-12-09T11:23:31.820Z,13.60
2022-12-09T11:26:06.183Z,13.41
2022-12-09T11:28:39.353Z,13.54
2022-12-09T11:31:35.255Z,14.45
2022-12-09T11:34:09.878Z,14.13
2022-12-09T11:36:44.356Z,13.92
2022-12-09T11:39:35.351Z,14.53
2022-12-09T11:42:19.425Z,14.80
2022-12-09T11:45:01.309Z,14.87
2022-12-09T11:48:24.210Z,15.42
2022-12-09T11:50:33.592Z,15.03
2022-12-09T11:53:24.261Z,14.95
2022-12-09T11:56:20.820Z,15.42
2022-12-09T11:59:11.520Z,14.71
2022-12-09T12:01:52.485Z,15.00
2022-12-09T12:04:29.126Z,13.77
2022-12-09T12:07:08.048Z,14.57
2022-12-09T12:09:38.951Z,14.85
2022-12-09T12:12:25.676Z,15.12
2022-12-09T12:14:55.877Z,14.60
2022-12-09T12:17:34.711Z,14.93
2022-12-09T12:20:04.984Z,14.89
2022-12-09T12:22:54.534Z,15.35
2022-12-09T12:25:29.913Z,15.22
2022-12-09T12:28:06.031Z,14.64
2022-12-09T12:30:57.499Z,14.45
2022-12-09T12:34:28.024Z,14.43
2022-12-09T12:37:05.657Z,14.13
2022-12-09T12:39:49.794Z,14.40
2022-12-09T12:43:08.312Z,14.01
2022-12-09T12:46:18.596Z,13.80
2022-12-09T12:48:53.348Z,13.51
2022-12-09T12:51:48.488Z,14.39
2022-12-09T12:54:27.064Z,14.39
2022-12-09T12:57:17.684Z,13.68
2022-12-09T13:00:10.179Z,14.41
2022-12-09T13:03:08.880Z,13.49
2022-12-09T13:05:42.799Z,13.29
2022-12-09T13:08:30.132Z,13.18
2022-12-09T13:11:00.026Z,13.42
2022-12-09T13:13:34.463Z,13.35
2022-12-09T13:16:19.105Z,14.18
2022-12-09T13:18:47.641Z,13.81
2022-12-09T13:21:16.383Z,13.89
2022-12-09T13:24:00.502Z,13.89
2022-12-09T13:26:51.541Z,13.65
2022-12-09T13:29:49.595Z,12.83
2022-12-09T13:32:30.848Z,13.09
2022-12-09T13:35:14.954Z,12.75
2022-12-09T13:37:43.342Z,13.24
2022-12-09T13:40:20.961Z,13.20
2022-12-09T13:42:59.242Z,13.22
2022-12-09T13:45:32.447Z,13.46
2022-12-09T13:48:22.872Z,13.40
2022-12-09T13:50:57.885Z,14.02
2022-12-09T13:53:34.086Z,14.30
2022-12-09T13:56:05.248Z,14.50
2022-12-09T13:59:01.722Z,14.57
2022-12-09T14:01:32.796Z,14.73
2022-12-09T14:04:09.354Z,14.43
2022-12-09T14:07:10.028Z,14.52
2022-12-09T14:09:58.309Z,14.44
2022-12-09T14:12:26.721Z,14.41
2022-12-09T14:14:55.761Z,13.34
2022-12-09T14:17:24.230Z,13.13
2022-12-09T14:19:57.119Z,13.50
2022-12-09T14:22:25.933Z,13.85
2022-12-09T14:24:59.464Z,14.10
2022-12-09T14:27:32.047Z,14.25
2022-12-09T14:30:04.407Z,13.75
2022-12-09T14:32:51.321Z,13.88
2022-12-09T14:35:31.827Z,13.70
2022-12-09T14:38:22.031Z,13.44
2022-12-09T14:41:07.152Z,13.40
2022-12-09T14:43:50.520Z,13.34
2022-12-09T14:46:27.449Z,13.15
2022-12-09T14:48:57.515Z,13.37
2022-12-09T14:51:27.676Z,12.95
2022-12-09T14:54:01.297Z,13.05
2022-12-09T14:56:30.609Z,13.22
2022-12-09T14:59:09.355Z,13.19
2022-12-09T15:01:55.424Z,12.85
2022-12-09T15:04:30.207Z,12.80
2022-12-09T15:07:21.394Z,12.70
2022-12-09T15:09:54.890Z,12.89
2022-12-09T15:12:28.058Z,12.91
2022-12-09T15:15:08.753Z,12.76
2022-12-09T15:17:49.224Z,12.14
2022-12-09T15:20:38.203Z,11.79
2022-12-09T15:23:06.528Z,11.88
2022-12-09T15:25:37.004Z,11.30
2022-12-09T15:28:13.672Z,11.65
2022-12-09T15:30:44.295Z,11.53
2022-12-09T15:33:18.164Z,12.01
2022-12-09T15:35:53.402Z,11.17
2022-12-09T15:38:22.119Z,10.33
2022-12-09T15:41:08.801Z,11.50
2022-12-09T15:43:37.250Z,11.50
2022-12-09T15:46:06.551Z,11.24
2022-12-09T15:48:37.716Z,10.78
2022-12-09T15:51:08.209Z,10.43
2022-12-09T15:53:42.269Z,11.24
2022-12-09T15:56:40.138Z,11.26
2022-12-09T15:59:17.789Z,11.18
2022-12-09T16:01:51.634Z,11.25
2022-12-09T16:04:21.960Z,11.50
2022-12-09T16:06:50.779Z,11.88
2022-12-09T16:09:20.658Z,12.24
2022-12-09T16:11:54.571Z,11.83
2022-12-09T16:14:23.936Z,11.83
2022-12-09T16:17:02.032Z,11.95
2022-12-09T16:19:34.150Z,12.11
2022-12-09T16:22:18.094Z,12.10
2022-12-09T16:25:15.457Z,10.67
2022-12-09T16:27:49.278Z,11.65
2022-12-09T16:30:23.090Z,12.19
2022-12-09T16:32:58.803Z,11.79
2022-12-09T16:35:38.346Z,11.09
2022-12-09T16:38:14.790Z,11.37
2022-12-09T16:40:46.858Z,11.72
2022-12-09T16:43:19.841Z,11.31
2022-12-09T16:45:52.412Z,11.83
2022-12-09T16:48:22.307Z,12.18
2022-12-09T16:51:13.417Z,12.37
2022-12-09T16:53:47.788Z,12.26
2022-12-09T16:56:28.151Z,12.55
2022-12-09T16:58:57.218Z,11.22
2022-12-09T17:01:32.260Z,11.18
2022-12-09T17:04:05.804Z,11.21
2022-12-09T17:06:34.472Z,11.07
2022-12-09T17:09:03.623Z,11.10
2022-12-09T17:11:32.574Z,10.80
2022-12-09T17:14:01.180Z,10.69
2022-12-09T17:16:29.951Z,11.27
2022-12-09T17:18:58.584Z,10.93
2022-12-09T17:21:27.150Z,11.52
2022-12-09T17:23:55.739Z,11.44
2022-12-09T17:26:24.334Z,11.61
2022-12-09T17:28:58.250Z,11.47
2022-12-09T17:31:30.622Z,11.55
2022-12-09T17:34:00.021Z,11.07
2022-12-09T17:36:29.511Z,10.34
2022-12-09T17:39:04.051Z,11.50
2022-12-09T17:41:33.334Z,10.56
2022-12-09T17:44:01.915Z,10.45
2022-12-09T17:46:30.545Z,10.53
2022-12-09T17:49:02.557Z,9.85
2022-12-09T17:51:35.983Z,10.86
2022-12-09T17:54:05.558Z,10.25
2022-12-09T17:56:34.988Z,11.23
2022-12-09T17:59:07.872Z,11.09
2022-12-09T18:01:37.212Z,11.26
2022-12-09T18:04:11.073Z,11.37
2022-12-09T18:06:45.182Z,11.49
2022-12-09T18:09:18.418Z,11.33
2022-12-09T18:11:47.267Z,11.72
2022-12-09T18:14:16.981Z,11.62
2022-12-09T18:16:53.238Z,11.68
2022-12-09T18:19:25.358Z,11.11
2022-12-09T18:21:57.192Z,11.19
2022-12-09T18:24:26.446Z,11.62
2022-12-09T18:26:55.041Z,11.37
2022-12-09T18:29:24.623Z,11.31
2022-12-09T18:31:57.768Z,11.31
2022-12-09T18:34:28.021Z,11.51
2022-12-09T18:36:57.111Z,11.87
2022-12-09T18:39:26.293Z,10.82
2022-12-09T18:41:55.094Z,11.09
2022-12-09T18:44:23.809Z,11.09
2022-12-09T18:46:52.382Z,11.00
2022-12-09T18:49:24.396Z,10.56
2022-12-09T18:51:53.889Z,10.60
2022-12-09T18:54:25.161Z,10.79
2022-12-09T18:56:55.933Z,10.70
2022-12-09T18:59:28.045Z,10.39
2022-12-09T19:01:57.096Z,10.74
2022-12-09T19:04:29.742Z,10.40
2022-12-09T19:07:00.413Z,10.78
2022-12-09T19:09:33.608Z,10.56
2022-12-09T19:12:37.764Z,10.45
2022-12-09T19:14:52.614Z,10.85
2022-12-09T19:17:25.048Z,10.65
2022-12-09T19:19:58.137Z,10.57
2022-12-09T19:22:28.817Z,10.51
2022-12-09T19:24:58.065Z,10.50
2022-12-09T19:27:27.893Z,10.12
2022-12-09T19:29:59.504Z,10.16
2022-12-09T19:32:52.657Z,10.44
2022-12-09T19:35:18.449Z,10.44
2022-12-09T19:37:49.144Z,11.26
2022-12-09T19:40:20.077Z,11.27
2022-12-09T19:42:49.000Z,12.00
2022-12-09T19:45:19.503Z,12.11
2022-12-09T19:47:48.218Z,11.90
2022-12-09T19:50:17.098Z,11.33
2022-12-09T19:52:45.945Z,11.53
2022-12-09T19:55:14.949Z,11.54
2022-12-09T19:57:44.563Z,11.04
2022-12-09T20:00:14.281Z,11.25
2022-12-09T20:02:43.039Z,10.67
2022-12-09T20:05:12.173Z,11.31
2022-12-09T20:07:41.003Z,10.86
2022-12-09T20:10:12.061Z,10.96
2022-12-09T20:12:42.185Z,10.50
2022-12-09T20:15:12.455Z,10.50
2022-12-09T20:17:42.438Z,10.85
2022-12-09T20:20:12.584Z,11.89
2022-12-09T20:22:42.374Z,11.36
2022-12-09T20:25:12.293Z,11.44
2022-12-09T20:27:41.092Z,10.44
2022-12-09T20:30:10.935Z,11.26
2022-12-09T20:32:39.803Z,11.77
2022-12-09T20:35:09.913Z,10.80
2022-12-09T20:37:39.547Z,10.14
2022-12-09T20:40:08.773Z,10.28
2022-12-09T20:42:37.746Z,10.65
2022-12-09T20:45:07.451Z,10.69
2022-12-09T20:47:36.690Z,11.03
2022-12-09T20:50:06.063Z,11.07
2022-12-09T20:52:34.830Z,10.85
2022-12-09T20:55:03.459Z,10.99
2022-12-09T20:57:32.266Z,11.03
2022-12-09T21:00:00.586Z,11.65
2022-12-09T21:02:29.390Z,11.23
2022-12-09T21:04:57.957Z,11.31
2022-12-09T21:07:26.718Z,11.21
2022-12-09T21:09:55.385Z,10.87
2022-12-09T21:12:23.746Z,11.07
2022-12-09T21:14:52.944Z,10.71
2022-12-09T21:17:21.942Z,11.04
2022-12-09T21:19:50.520Z,11.28
2022-12-09T21:22:18.960Z,11.02
2022-12-09T21:24:47.622Z,10.70
2022-12-09T21:27:16.237Z,11.16
2022-12-09T21:29:45.371Z,11.33
2022-12-09T21:32:13.794Z,11.35
2022-12-09T21:34:42.333Z,11.47
2022-12-09T21:37:11.247Z,12.05
2022-12-09T21:39:39.749Z,12.11
2022-12-09T21:42:09.541Z,12.46
2022-12-09T21:44:38.733Z,12.44
2022-12-09T21:47:07.235Z,11.63
2022-12-09T21:49:35.632Z,11.41
2022-12-09T21:52:06.866Z,10.99
2022-12-09T21:54:35.196Z,11.23
2022-12-09T21:57:03.719Z,11.82
2022-12-09T21:59:32.187Z,12.30
2022-12-09T22:02:00.992Z,12.46
2022-12-09T22:04:29.352Z,12.40
2022-12-09T22:06:57.841Z,12.32
2022-12-09T22:09:27.612Z,11.81
2022-12-09T22:11:56.074Z,11.73
2022-12-09T22:14:24.526Z,11.49
2022-12-09T22:16:53.671Z,11.61
2022-12-09T22:19:24.047Z,12.10
2022-12-09T22:21:52.532Z,11.13
2022-12-09T22:24:21.088Z,11.15
2022-12-09T22:26:49.549Z,10.73
2022-12-09T22:29:18.786Z,10.95
2022-12-09T22:31:47.586Z,11.19
2022-12-09T22:34:18.211Z,11.10
2022-12-09T22:36:47.588Z,11.51
2022-12-09T22:39:18.223Z,11.12
2022-12-09T22:41:46.802Z,10.92
2022-12-09T22:44:17.884Z,11.11
2022-12-09T22:46:47.516Z,11.07
2022-12-09T22:49:16.063Z,10.73
2022-12-09T22:51:44.621Z,10.99
2022-12-09T22:54:13.872Z,10.83
2022-12-09T22:56:43.129Z,10.87
2022-12-09T22:59:12.520Z,10.93
2022-12-09T23:01:40.918Z,10.96
2022-12-09T23:04:09.947Z,11.19
2022-12-09T23:06:38.785Z,11.66
2022-12-09T23:09:08.592Z,11.31
2022-12-09T23:11:37.409Z,11.59
2022-12-09T23:14:06.660Z,11.41
2022-12-09T23:16:35.729Z,11.37
2022-12-09T23:19:04.141Z,11.99
2022-12-09T23:21:34.234Z,11.93
2022-12-09T23:24:05.328Z,12.00
2022-12-09T23:26:39.682Z,12.00
2022-12-09T23:29:09.270Z,11.31
2022-12-09T23:31:37.831Z,11.85
2022-12-09T23:34:07.861Z,11.47
2022-12-09T23:36:38.027Z,11.57
2022-12-09T23:39:10.106Z,12.28
2022-12-09T23:41:39.658Z,12.07
2022-12-09T23:44:10.025Z,12.00
2022-12-09T23:46:38.486Z,12.19
2022-12-09T23:49:07.898Z,12.10
2022-12-09T23:51:39.925Z,12.57
2022-12-09T23:54:08.701Z,12.59
2022-12-09T23:56:39.351Z,12.56
2022-12-09T23:59:09.190Z,12.60
